Time;durP1;ratioP1;P1;durP2;ratioP2;P2;SDS_P1;SDS_P2;PMS_P1;PMS_P2;Temp;Humidity;BMP_temperature;BMP_pressure;BME280_temperature;BME280_humidity;BME280_pressure;Samples;Min_cycle;Max_cycle;Signal;HPM_P1;HPM_P2
2020/12/16 00:00:09;;;;;;;13.97;7.37;;;;;;;-0.21;81.99;100756.37;1817272;78;21425;-79
2020/12/16 00:02:38;;;;;;;11.78;7.00;;;;;;;-0.22;81.76;100758.21;1823013;78;21518;-81
2020/12/16 00:05:08;;;;;;;;;;;;;;;-0.23;81.54;100760.55;1831447;77;21570;-82
2020/12/16 00:07:37;;;;;;;13.23;6.80;;;;;;;-0.25;81.52;100757.69;1817239;78;20145;-84
2020/12/16 00:10:09;;;;;;;13.03;6.97;;;;;;;-0.27;81.68;100761.06;1814672;78;21254;-81
2020/12/16 00:12:42;;;;;;;13.47;7.43;;;;;;;-0.27;81.74;100769.13;1819270;78;21183;-82
2020/12/16 00:15:11;;;;;;;13.80;7.47;;;;;;;-0.29;81.83;100765.27;1821171;79;21195;-82
2020/12/16 00:17:39;;;;;;;15.67;7.63;;;;;;;-0.29;81.87;100766.61;1817842;78;21112;-83
2020/12/16 00:20:08;;;;;;;18.07;9.08;;;;;;;-0.28;81.81;100768.80;1824594;78;21137;-83
2020/12/16 00:22:38;;;;;;;17.87;9.33;;;;;;;-0.28;81.77;100768.80;1816958;78;21232;-75
2020/12/16 00:25:08;;;;;;;18.10;9.50;;;;;;;-0.29;81.92;100767.11;1820534;78;21085;-74
2020/12/16 00:27:37;;;;;;;16.50;8.63;;;;;;;-0.29;82.12;100766.61;1819983;78;21773;-74
2020/12/16 00:30:06;;;;;;;15.93;8.50;;;;;;;-0.28;82.17;100758.05;1820091;78;21162;-74
2020/12/16 00:32:39;;;;;;;16.60;9.07;;;;;;;-0.30;82.20;100770.80;1818062;78;21204;-83
2020/12/16 00:35:08;;;;;;;16.43;9.03;;;;;;;-0.31;82.21;100770.48;1781100;80;21563;-83
2020/12/16 00:37:37;;;;;;;16.57;8.93;;;;;;;-0.31;82.01;100771.82;1780971;80;21152;-75
2020/12/16 00:40:06;;;;;;;16.53;8.90;;;;;;;-0.32;82.11;100767.44;1818887;78;21163;-75
2020/12/16 00:42:34;;;;;;;17.43;9.00;;;;;;;-0.32;82.17;100776.35;1822146;78;21061;-75
2020/12/16 00:45:07;;;;;;;16.00;9.05;;;;;;;-0.32;82.38;100776.85;1804881;77;21331;-75
2020/12/16 00:47:35;;;;;;;18.27;9.87;;;;;;;-0.30;82.05;100776.17;1791660;78;21135;-74
2020/12/16 00:50:05;;;;;;;19.93;10.13;;;;;;;-0.32;81.89;100775.02;1815646;78;21089;-74
2020/12/16 00:52:35;;;;;;;18.33;9.97;;;;;;;-0.34;81.95;100777.53;1816829;77;21146;-73
2020/12/16 00:55:04;;;;;;;;;;;;;;;-0.33;81.91;100782.73;1818808;78;21139;-74
2020/12/16 00:57:33;;;;;;;20.08;10.38;;;;;;;-0.36;82.09;100778.20;1803889;79;20154;-73
2020/12/16 01:00:07;;;;;;;19.30;9.83;;;;;;;-0.36;82.19;100784.43;1814980;78;21155;-73
2020/12/16 01:02:44;;;;;;;21.37;10.47;;;;;;;-0.36;82.17;100781.73;1820072;78;21105;-74
2020/12/16 01:05:17;;;;;;;20.93;11.00;;;;;;;-0.36;82.29;100784.92;1789936;78;21110;-83
2020/12/16 01:07:47;;;;;;;21.20;11.10;;;;;;;-0.37;82.49;100788.61;1826781;78;21072;-83
2020/12/16 01:10:17;;;;;;;19.00;10.47;;;;;;;-0.37;82.56;100796.67;1817584;78;21128;-82
2020/12/16 01:12:47;;;;;;;20.03;11.30;;;;;;;-0.38;82.61;100800.39;1820587;78;21100;-83
2020/12/16 01:15:22;;;;;;;22.23;11.33;;;;;;;-0.39;82.81;100797.34;1791163;79;21271;-82
2020/12/16 01:17:53;;;;;;;21.90;11.70;;;;;;;-0.39;82.79;100797.34;1827891;78;21087;-81
2020/12/16 01:20:22;;;;;;;23.07;12.37;;;;;;;-0.38;82.81;100809.27;1816901;78;21228;-80
2020/12/16 01:22:52;;;;;;;21.07;11.47;;;;;;;-0.41;82.98;100804.75;1815786;78;21089;-79
2020/12/16 01:25:21;;;;;;;22.97;11.20;;;;;;;-0.41;83.06;100803.41;1792100;80;21092;-79
2020/12/16 01:27:57;;;;;;;20.43;11.27;;;;;;;-0.39;83.17;100803.58;1743745;81;21132;-81
2020/12/16 01:30:27;;;;;;;20.13;11.70;;;;;;;-0.37;83.16;100808.28;1777089;79;21667;-80
2020/12/16 01:32:56;;;;;;;21.53;11.77;;;;;;;-0.35;83.11;100812.98;1790668;79;21112;-79
2020/12/16 01:35:26;;;;;;;19.43;11.43;;;;;;;-0.36;83.11;100806.44;1799070;79;21148;-80
2020/12/16 01:37:54;;;;;;;19.75;11.33;;;;;;;-0.36;83.18;100804.59;1799098;79;21168;-80
2020/12/16 01:40:24;;;;;;;24.37;12.13;;;;;;;-0.37;82.86;100813.66;1799023;79;21086;-79
2020/12/16 01:42:52;;;;;;;27.82;13.65;;;;;;;-0.40;82.97;100812.64;1801637;79;21116;-80
2020/12/16 01:45:22;;;;;;;24.43;12.20;;;;;;;-0.39;83.11;100806.27;1815293;79;21120;-81
2020/12/16 01:47:51;;;;;;;22.10;11.73;;;;;;;-0.40;83.09;100806.41;1794264;79;21318;-81
2020/12/16 01:50:20;;;;;;;25.53;12.83;;;;;;;-0.40;83.25;100809.10;1768014;79;21267;-73
2020/12/16 01:52:49;;;;;;;26.70;12.83;;;;;;;-0.39;83.18;100814.83;1791152;79;21123;-74
2020/12/16 01:55:20;;;;;;;27.40;13.07;;;;;;;-0.39;83.32;100810.30;1755626;80;21570;-74
2020/12/16 01:57:55;;;;;;;25.37;12.80;;;;;;;-0.38;83.34;100816.00;1810082;79;21159;-74
2020/12/16 02:00:24;;;;;;;23.53;12.40;;;;;;;-0.37;83.46;100822.22;1789093;79;21611;-74
2020/12/16 02:02:54;;;;;;;26.83;12.80;;;;;;;-0.35;83.43;100828.27;1800988;79;21097;-73
2020/12/16 02:05:28;;;;;;;25.17;12.27;;;;;;;-0.35;83.30;100835.00;1770803;80;21206;-75
2020/12/16 02:07:58;;;;;;;24.83;12.47;;;;;;;-0.34;83.35;100840.73;1817254;78;21123;-79
2020/12/16 02:10:27;;;;;;;25.20;12.43;;;;;;;-0.32;83.36;100841.40;1820161;78;21575;-74
2020/12/16 02:12:55;;;;;;;24.25;12.93;;;;;;;-0.31;83.14;100840.41;1821305;78;21565;-75
2020/12/16 02:15:23;;;;;;;25.72;12.07;;;;;;;-0.32;83.13;100842.74;1821480;78;21164;-75
2020/12/16 02:17:51;;;;;;;21.77;11.25;;;;;;;-0.35;83.07;100844.41;1821367;78;21104;-75
2020/12/16 02:20:19;;;;;;;23.05;11.73;;;;;;;-0.35;82.87;100848.45;1820296;78;21248;-73
2020/12/16 02:22:49;;;;;;;22.17;11.87;;;;;;;-0.38;82.97;100851.48;1823409;78;21104;-74
2020/12/16 02:25:19;;;;;;;21.10;10.73;;;;;;;-0.37;83.01;100860.72;1799797;79;21102;-74
2020/12/16 02:27:49;;;;;;;21.97;11.57;;;;;;;-0.42;82.71;100856.34;1789107;79;21636;-74
2020/12/16 02:30:19;;;;;;;24.70;12.17;;;;;;;-0.44;82.95;100864.23;1795938;79;21093;-74
2020/12/16 02:33:05;;;;;;;20.87;11.33;;;;;;;-0.43;83.01;100856.52;1790080;79;21611;-73
2020/12/16 02:35:35;;;;;;;22.90;11.97;;;;;;;-0.45;83.04;100866.06;1788189;80;21116;-73
2020/12/16 02:38:08;;;;;;;20.40;10.10;;;;;;;-0.47;82.92;100863.20;1795130;79;21113;-72
2020/12/16 02:40:37;;;;;;;21.52;10.82;;;;;;;-0.49;82.52;100862.53;1808275;78;21624;-75
2020/12/16 02:43:05;;;;;;;18.60;10.88;;;;;;;-0.57;82.17;100867.37;1775530;79;21143;-74
2020/12/16 02:45:34;;;;;;;19.90;10.53;;;;;;;-0.60;82.30;100864.16;1806676;78;21143;-73
2020/12/16 02:48:04;;;;;;;20.70;11.57;;;;;;;-0.63;82.54;100856.44;1812267;78;21591;-73
2020/12/16 02:50:38;;;;;;;20.67;10.70;;;;;;;-0.64;82.51;100869.03;1807276;79;21129;-74
2020/12/16 02:53:08;;;;;;;17.90;9.90;;;;;;;-0.67;82.23;100868.00;1816357;78;21123;-73
2020/12/16 02:55:39;;;;;;;18.60;10.20;;;;;;;-0.71;81.93;100869.34;1780379;80;21243;-81
2020/12/16 02:58:08;;;;;;;18.40;10.25;;;;;;;-0.74;82.19;100865.13;1782255;80;21457;-82
2020/12/16 03:00:36;;;;;;;19.48;10.58;;;;;;;-0.74;82.15;100877.23;1798654;80;21120;-80
2020/12/16 03:03:14;;;;;;;20.57;10.50;;;;;;;-0.76;82.23;100875.17;1790432;78;21612;-81
2020/12/16 03:05:53;;;;;;;19.13;9.67;;;;;;;-0.76;82.21;100873.02;1787547;79;21153;-78
2020/12/16 03:08:29;;;;;;;17.17;9.23;;;;;;;-0.77;82.14;100876.20;1791563;79;21116;-73
2020/12/16 03:11:02;;;;;;;20.37;10.17;;;;;;;-0.79;82.21;100872.84;1821047;79;21116;-78
2020/12/16 03:13:30;;;;;;;21.05;10.32;;;;;;;-0.79;82.33;100878.21;1784146;79;21183;-78
2020/12/16 03:16:02;;;;;;;17.67;9.27;;;;;;;-0.76;82.24;100877.05;1826180;78;21111;-79
2020/12/16 03:18:33;;;;;;;18.77;9.57;;;;;;;-0.76;81.86;100880.55;1790240;78;21112;-81
2020/12/16 03:21:03;;;;;;;17.50;9.13;;;;;;;-0.75;81.78;100880.91;1821132;78;21085;-80
2020/12/16 03:23:32;;;;;;;17.83;9.97;;;;;;;-0.76;81.94;100883.23;1823069;78;21088;-78
2020/12/16 03:26:08;;;;;;;18.53;9.70;;;;;;;-0.77;81.87;100881.57;1790784;79;21102;-73
2020/12/16 03:28:50;;;;;;;21.07;10.13;;;;;;;-0.78;81.91;100877.68;1810742;78;21136;-76
2020/12/16 03:31:31;;;;;;;18.23;9.27;;;;;;;-0.79;81.98;100877.36;1812209;77;21152;-75
2020/12/16 03:34:16;;;;;;;17.17;9.17;;;;;;;-0.80;81.86;100880.55;1694467;83;21209;-75
2020/12/16 03:36:46;;;;;;;17.43;8.93;;;;;;;-0.79;81.90;100886.27;1744330;80;21156;-77
2020/12/16 03:39:14;;;;;;;17.60;9.30;;;;;;;-0.78;81.73;100886.59;1820339;78;21207;-75
2020/12/16 03:41:42;;;;;;;18.80;9.93;;;;;;;-0.79;81.82;100884.93;1820276;78;21128;-75
2020/12/16 03:44:12;;;;;;;18.37;9.63;;;;;;;-0.79;81.96;100892.14;1815298;78;21065;-76
2020/12/16 03:46:41;;;;;;;18.60;9.17;;;;;;;-0.79;82.13;100893.48;1814633;78;21104;-77
2020/12/16 03:49:10;;;;;;;21.95;9.78;;;;;;;-0.80;82.29;100895.33;1817410;78;21139;-77
2020/12/16 03:51:37;;;;;;;17.42;9.75;;;;;;;-0.80;82.36;100893.13;1824107;78;21107;-75
2020/12/16 03:54:08;;;;;;;19.07;10.13;;;;;;;-0.82;82.44;100893.30;1821900;78;21084;-76
2020/12/16 03:56:49;;;;;;;20.80;10.97;;;;;;;-0.84;82.64;100900.69;1736746;79;21129;-74
2020/12/16 03:59:19;;;;;;;19.83;10.77;;;;;;;-0.85;82.55;100904.37;1805135;79;21101;-75
2020/12/16 04:01:52;;;;;;;25.07;11.93;;;;;;;-0.87;82.69;100896.97;1796294;79;21171;-76
2020/12/16 04:04:20;;;;;;;19.87;10.20;;;;;;;-0.85;82.90;100898.99;1772951;80;21625;-75
2020/12/16 04:06:55;;;;;;;20.63;10.17;;;;;;;-0.85;82.94;100904.86;1794373;79;21235;-77
2020/12/16 04:09:26;;;;;;;21.00;11.10;;;;;;;-0.84;83.00;100909.25;1825852;78;21068;-77
2020/12/16 04:11:56;;;;;;;21.67;11.37;;;;;;;-0.85;82.74;100908.40;1820228;78;21183;-79
2020/12/16 04:14:29;;;;;;;21.20;11.97;;;;;;;-0.87;82.96;100896.97;1820980;79;21131;-77
2020/12/16 04:16:57;;;;;;;21.93;10.75;;;;;;;-0.84;83.05;100895.31;1816001;78;21160;-76
2020/12/16 04:19:26;;;;;;;24.80;11.67;;;;;;;-0.83;83.08;100896.98;1794489;79;21246;-82
2020/12/16 04:21:56;;;;;;;19.90;10.72;;;;;;;-0.82;83.21;100902.71;1818835;78;21100;-77
2020/12/16 04:24:26;;;;;;;19.90;10.40;;;;;;;-0.82;83.27;100910.77;1808518;79;21143;-78
2020/12/16 04:26:55;;;;;;;19.20;10.33;;;;;;;-0.81;83.25;100904.38;1819368;77;21262;-78
2020/12/16 04:29:26;;;;;;;27.10;13.63;;;;;;;-0.79;83.25;100906.43;1788988;80;21511;-79
2020/12/16 04:31:54;;;;;;;23.50;11.93;;;;;;;-0.79;83.24;100909.61;1786651;80;21619;-79
2020/12/16 04:34:24;;;;;;;23.57;12.07;;;;;;;-0.77;83.30;100912.98;1820704;78;21468;-77
2020/12/16 04:36:52;;;;;;;28.70;13.13;;;;;;;-0.79;83.34;100911.80;1821156;79;21167;-78
2020/12/16 04:39:22;;;;;;;22.03;11.63;;;;;;;-0.79;83.34;100910.46;1784393;79;21156;-81
2020/12/16 04:41:53;;;;;;;20.03;10.37;;;;;;;-0.78;83.43;100906.75;1799148;78;21172;-79
2020/12/16 04:44:22;;;;;;;21.73;11.43;;;;;;;-0.77;83.17;100906.26;1782138;80;21203;-83
2020/12/16 04:46:53;;;;;;;23.50;11.47;;;;;;;-0.79;83.37;100906.43;1820962;77;21154;-80
2020/12/16 04:49:23;;;;;;;20.73;10.77;;;;;;;-0.81;83.37;100900.34;1781397;79;21258;-72
2020/12/16 04:51:52;;;;;;;21.90;11.27;;;;;;;-0.82;83.40;100899.17;1825508;78;21151;-75
2020/12/16 04:54:22;;;;;;;22.47;11.07;;;;;;;-0.83;83.60;100900.16;1818540;77;21241;-80
2020/12/16 04:56:50;;;;;;;21.87;11.08;;;;;;;-0.84;83.57;100900.69;1791976;79;21198;-82
2020/12/16 04:59:20;;;;;;;22.67;11.77;;;;;;;-0.84;83.63;100898.00;1817605;77;21223;-81
2020/12/16 05:01:53;;;;;;;23.63;11.37;;;;;;;-0.87;83.58;100906.38;1816378;78;21101;-83
2020/12/16 05:04:23;;;;;;;24.00;11.97;;;;;;;-0.90;83.82;100911.22;1801069;78;21147;-82
2020/12/16 05:06:53;;;;;;;21.00;10.90;;;;;;;-0.91;83.89;100918.42;1805741;79;21133;-74
2020/12/16 05:09:20;;;;;;;25.65;12.37;;;;;;;-0.91;83.97;100913.05;1800045;78;21429;-78
2020/12/16 05:11:51;;;;;;;25.12;13.20;;;;;;;-0.90;83.96;100914.75;1798420;78;21584;-76
2020/12/16 05:14:21;;;;;;;24.87;12.70;;;;;;;-0.89;83.99;100916.45;1806185;78;21134;-77
2020/12/16 05:17:02;;;;;;;24.73;11.90;;;;;;;-0.86;84.04;100924.69;1796334;78;21097;-77
2020/12/16 05:19:44;;;;;;;23.77;11.90;;;;;;;-0.84;84.08;100928.91;1781770;78;21536;-82
2020/12/16 05:22:17;;;;;;;21.60;11.57;;;;;;;-0.83;83.93;100931.06;1804118;79;21568;-79
2020/12/16 05:24:45;;;;;;;25.77;12.07;;;;;;;-0.85;84.03;100936.61;1781476;78;21156;-80
2020/12/16 05:27:24;;;;;;;26.50;13.53;;;;;;;-0.83;84.10;100939.98;1798961;79;21585;-81
2020/12/16 05:30:00;;;;;;;28.80;13.38;;;;;;;-0.81;84.17;100943.34;1811391;79;21125;-79
2020/12/16 05:32:30;;;;;;;31.53;15.17;;;;;;;-0.82;84.05;100936.30;1820946;78;21175;-80
2020/12/16 05:34:59;;;;;;;25.70;12.80;;;;;;;-0.81;84.03;100937.16;1820947;77;21285;-81
2020/12/16 05:37:34;;;;;;;26.50;13.17;;;;;;;-0.82;83.96;100939.48;1816221;77;21077;-77
2020/12/16 05:40:09;;;;;;;27.00;13.83;;;;;;;-0.82;83.87;100940.83;1807121;79;22454;-82
2020/12/16 05:42:38;;;;;;;27.70;13.23;;;;;;;-0.84;83.82;100946.38;1769327;79;21119;-80
2020/12/16 05:45:11;;;;;;;28.20;13.77;;;;;;;-0.86;83.86;100945.66;1799569;79;21576;-82
2020/12/16 05:47:40;;;;;;;26.93;13.23;;;;;;;-0.87;83.97;100941.31;1776755;79;21148;-79
2020/12/16 05:50:16;;;;;;;22.67;11.60;;;;;;;-0.85;84.04;100941.98;1802834;79;21215;-79
2020/12/16 05:52:45;;;;;;;25.37;12.53;;;;;;;-0.83;84.00;100937.30;1811961;77;21325;-74
2020/12/16 05:55:27;;;;;;;28.37;13.37;;;;;;;-0.82;83.98;100947.05;1784923;79;21587;-79
2020/12/16 05:58:07;;;;;;;27.30;13.60;;;;;;;-0.81;83.96;100948.72;1797478;79;21144;-79
2020/12/16 06:01:02;;;;;;;28.63;13.70;;;;;;;-0.80;83.98;100952.26;1804323;79;21081;-81
2020/12/16 06:03:38;;;;;;;28.10;14.17;;;;;;;-0.79;83.92;100953.46;1762091;80;21520;-78
2020/12/16 06:06:08;;;;;;;28.30;13.67;;;;;;;-0.77;83.87;100950.11;1798231;80;21400;-80
2020/12/16 06:08:43;;;;;;;27.13;13.57;;;;;;;-0.77;83.81;100944.73;1797803;80;21152;-82
2020/12/16 06:11:12;;;;;;;24.27;12.13;;;;;;;-0.79;83.86;100948.58;1790085;79;21250;-73
2020/12/16 06:13:45;;;;;;;30.47;14.50;;;;;;;-0.81;83.92;100950.06;1820415;78;21136;-73
2020/12/16 06:16:14;;;;;;;26.40;13.00;;;;;;;-0.80;83.97;100950.42;1820762;79;21101;-75
2020/12/16 06:18:47;;;;;;;26.50;14.05;;;;;;;-0.80;84.13;100958.48;1758655;80;21548;-74
2020/12/16 06:21:16;;;;;;;26.57;13.53;;;;;;;-0.76;84.11;100962.52;1804734;79;21124;-72
2020/12/16 06:23:44;;;;;;;27.13;14.13;;;;;;;-0.73;84.06;100966.73;1807163;79;21124;-73
2020/12/16 06:26:16;;;;;;;29.83;13.70;;;;;;;-0.71;84.25;100976.33;1796261;79;21135;-78
2020/12/16 06:28:44;;;;;;;24.97;13.50;;;;;;;-0.69;83.98;100970.32;1796651;79;21195;-80
2020/12/16 06:31:31;;;;;;;24.75;12.78;;;;;;;-0.67;84.06;100971.00;1801343;79;21121;-80
2020/12/16 06:34:05;;;;;;;26.73;13.77;;;;;;;-0.63;83.84;100975.54;1797018;79;21670;-78
2020/12/16 06:36:38;;;;;;;27.03;14.10;;;;;;;-0.62;83.73;100978.58;1809033;79;21152;-82
2020/12/16 06:39:15;;;;;;;27.80;14.27;;;;;;;-0.60;83.58;100985.13;1812012;79;21206;-80
2020/12/16 06:41:57;;;;;;;33.30;14.87;;;;;;;-0.58;83.49;100988.53;1795131;79;21144;-79
2020/12/16 06:44:26;;;;;;;31.47;15.00;;;;;;;-0.58;83.35;100983.15;1769893;79;21136;-78
2020/12/16 06:46:57;;;;;;;27.50;14.67;;;;;;;-0.57;83.33;100984.82;1811369;79;21156;-78
2020/12/16 06:49:28;;;;;;;26.80;13.43;;;;;;;-0.57;83.41;100987.50;1804023;79;21160;-77
2020/12/16 06:52:09;;;;;;;30.33;15.97;;;;;;;-0.55;83.42;100982.81;1798054;80;21157;-76
2020/12/16 06:54:52;;;;;;;26.73;13.97;;;;;;;-0.55;83.24;100982.81;1798192;79;21108;-79
2020/12/16 06:57:25;;;;;;;25.90;13.10;;;;;;;-0.57;82.90;100987.02;1795042;79;21219;-79
2020/12/16 06:59:57;;;;;;;24.35;12.73;;;;;;;-0.57;82.87;100988.36;1797033;79;21203;-74
2020/12/16 07:02:31;;;;;;;26.97;13.80;;;;;;;-0.54;82.77;100988.54;1796973;79;21179;-78
2020/12/16 07:05:01;;;;;;;31.67;14.10;;;;;;;-0.52;82.74;100992.75;1798036;79;21128;-79
2020/12/16 07:07:43;;;;;;;25.83;13.67;;;;;;;-0.50;82.81;100984.52;1820285;77;21080;-81
2020/12/16 07:10:37;;;;;;;27.77;13.23;;;;;;;-0.48;82.80;100987.39;1799031;78;21475;-80
2020/12/16 07:13:26;;;;;;;22.57;12.30;;;;;;;-0.45;82.78;100991.60;1777217;80;21151;-79
2020/12/16 07:16:00;;;;;;;24.10;13.47;;;;;;;-0.42;82.40;100991.29;1782485;78;21591;-82
2020/12/16 07:18:43;;;;;;;29.40;14.37;;;;;;;-0.40;82.27;100989.27;1819511;78;21131;-78
2020/12/16 07:21:18;;;;;;;28.40;14.27;;;;;;;-0.40;82.38;100986.09;1818427;78;21123;-79
2020/12/16 07:23:57;;;;;;;27.10;13.37;;;;;;;-0.37;82.47;100983.09;1756392;81;21128;-80
2020/12/16 07:26:28;;;;;;;28.05;14.07;;;;;;;-0.35;82.57;100989.64;1793875;79;21082;-78
2020/12/16 07:28:59;;;;;;;30.60;15.50;;;;;;;-0.32;82.07;100985.29;1801315;79;21109;-78
2020/12/16 07:31:27;;;;;;;30.80;15.67;;;;;;;-0.33;81.96;100983.09;1799741;79;21100;-77
2020/12/16 07:33:55;;;;;;;30.15;14.75;;;;;;;-0.31;82.00;100996.41;1768916;79;21180;-75
2020/12/16 07:36:23;;;;;;;32.58;17.15;;;;;;;-0.31;81.92;100996.41;1805738;79;21207;-77
2020/12/16 07:38:54;;;;;;;33.85;17.55;;;;;;;-0.32;81.76;100989.32;1803137;79;21197;-76
2020/12/16 07:41:30;;;;;;;29.77;16.37;;;;;;;-0.30;81.93;100992.69;1796962;79;21172;-81
2020/12/16 07:44:02;;;;;;;29.17;15.27;;;;;;;-0.27;81.84;100989.69;1799684;79;21699;-83
2020/12/16 07:46:30;;;;;;;28.40;15.30;;;;;;;-0.27;81.75;100987.84;1812194;79;21125;-78
2020/12/16 07:48:59;;;;;;;28.87;15.15;;;;;;;-0.27;81.49;100999.09;1803131;79;21451;-81
2020/12/16 07:51:27;;;;;;;30.65;15.50;;;;;;;-0.27;81.43;100997.75;1808383;79;21140;-81
2020/12/16 07:53:54;;;;;;;26.12;14.33;;;;;;;-0.28;81.65;101003.63;1806795;79;21128;-80
2020/12/16 07:56:22;;;;;;;31.90;15.68;;;;;;;-0.26;81.31;101015.59;1806486;79;21148;-81
2020/12/16 07:58:50;;;;;;;33.95;17.50;;;;;;;-0.27;81.38;101009.86;1812197;79;21257;-80
2020/12/16 08:01:20;;;;;;;34.60;15.90;;;;;;;-0.25;81.49;101021.30;1814760;79;21120;-81
2020/12/16 08:03:48;;;;;;;30.75;14.90;;;;;;;-0.26;81.46;101019.63;1811266;79;21200;-85
2020/12/16 08:06:16;;;;;;;35.40;16.13;;;;;;;-0.28;81.65;101024.33;1804947;79;21559;-79
2020/12/16 08:08:51;;;;;;;32.73;15.38;;;;;;;-0.25;81.75;101017.26;1812386;79;21404;-80
2020/12/16 08:11:20;;;;;;;26.67;14.27;;;;;;;-0.22;81.73;101019.14;1810973;79;21168;-78
2020/12/16 08:13:48;;;;;;;26.50;14.07;;;;;;;-0.21;81.83;101013.27;1799963;79;21147;-77
2020/12/16 08:16:16;;;;;;;31.90;15.60;;;;;;;-0.19;82.19;101013.94;1796759;79;21157;-80
2020/12/16 08:18:47;;;;;;;28.55;14.87;;;;;;;-0.19;82.52;101005.87;1798523;80;21187;-79
2020/12/16 08:21:20;;;;;;;30.33;13.63;;;;;;;-0.18;82.92;101011.61;1809221;79;21105;-78
2020/12/16 08:23:52;;;;;;;30.50;14.03;;;;;;;-0.20;82.67;101018.97;1814593;79;21180;-78
2020/12/16 08:26:23;;;;;;;30.97;14.93;;;;;;;-0.25;82.80;101001.12;1759251;80;21141;-77
2020/12/16 08:28:51;;;;;;;27.07;14.47;;;;;;;-0.29;82.63;101010.03;1794727;79;21174;-76
2020/12/16 08:31:21;;;;;;;27.53;14.07;;;;;;;-0.33;82.99;101018.06;1786377;79;21138;-74
2020/12/16 08:33:49;;;;;;;27.87;13.90;;;;;;;-0.39;83.26;101011.14;1818029;79;21089;-74
2020/12/16 08:36:22;;;;;;;25.65;14.25;;;;;;;-0.45;83.22;101013.11;1780007;80;21128;-74
2020/12/16 08:38:51;;;;;;;29.77;15.33;;;;;;;-0.49;83.76;101015.30;1748219;79;21132;-76
2020/12/16 08:41:27;;;;;;;28.13;14.23;;;;;;;-0.52;84.05;101014.76;1820292;78;21556;-75
2020/12/16 08:43:55;;;;;;;32.60;14.93;;;;;;;-0.55;83.89;101012.38;1793925;79;21127;-75
2020/12/16 08:46:25;;;;;;;33.53;16.30;;;;;;;-0.59;84.10;101015.05;1801959;79;21148;-77
2020/12/16 08:48:59;;;;;;;32.13;15.67;;;;;;;-0.61;84.31;101007.66;1791175;79;21128;-80
2020/12/16 08:51:40;;;;;;;29.30;14.50;;;;;;;-0.60;84.74;101010.17;1820362;78;21136;-77
2020/12/16 08:54:10;;;;;;;27.80;14.07;;;;;;;-0.59;84.54;101012.37;1820963;77;21128;-77
2020/12/16 08:56:42;;;;;;;30.00;15.87;;;;;;;-0.61;84.21;101013.03;1785353;79;21188;-75
2020/12/16 08:59:16;;;;;;;32.10;15.37;;;;;;;-0.63;84.49;101014.52;1820980;78;21547;-76
2020/12/16 09:01:47;;;;;;;30.13;15.70;;;;;;;-0.62;84.93;101014.02;1818448;78;21097;-78
2020/12/16 09:04:38;;;;;;;31.60;16.63;;;;;;;-0.65;84.32;101017.38;1819189;77;21108;-78
2020/12/16 09:07:14;;;;;;;32.30;15.53;;;;;;;-0.63;84.90;101021.77;1822332;78;21226;-76
2020/12/16 09:09:51;;;;;;;29.77;14.70;;;;;;;-0.61;85.03;101017.06;1821096;78;21532;-78
2020/12/16 09:12:21;;;;;;;30.47;14.83;;;;;;;-0.60;84.94;101025.45;1819240;78;21181;-75
2020/12/16 09:14:55;;;;;;;33.37;15.97;;;;;;;-0.65;84.80;101019.22;1787023;80;21139;-74
2020/12/16 09:17:25;;;;;;;28.07;14.63;;;;;;;-0.67;84.89;101026.11;1819094;78;21709;-78
2020/12/16 09:19:53;;;;;;;31.57;15.07;;;;;;;-0.65;85.27;101022.75;1792081;79;21101;-78
2020/12/16 09:22:24;;;;;;;30.52;15.38;;;;;;;-0.62;85.03;101020.74;1801322;79;21171;-77
2020/12/16 09:24:56;;;;;;;29.10;14.63;;;;;;;-0.61;84.82;101026.48;1798546;79;21167;-80
2020/12/16 09:27:24;;;;;;;33.93;16.30;;;;;;;-0.63;84.73;101023.11;1796453;79;21155;-80
2020/12/16 09:29:52;;;;;;;32.35;15.53;;;;;;;-0.62;85.03;101028.31;1762630;79;21198;-80
2020/12/16 09:32:25;;;;;;;31.97;15.63;;;;;;;-0.60;84.99;101024.96;1763638;79;21307;-82
2020/12/16 09:34:54;;;;;;;30.33;15.10;;;;;;;-0.57;84.98;101023.80;1792111;79;21651;-77
2020/12/16 09:37:26;;;;;;;30.53;15.43;;;;;;;-0.56;85.03;101034.91;1815853;78;21563;-74
2020/12/16 09:40:15;;;;;;;32.07;15.20;;;;;;;-0.54;85.07;101032.91;1823602;78;21825;-78
2020/12/16 09:42:53;;;;;;;31.97;15.37;;;;;;;-0.53;85.04;101029.22;1822965;78;21147;-77
2020/12/16 09:45:21;;;;;;;32.67;15.47;;;;;;;-0.53;84.90;101030.04;1821218;78;21167;-76
2020/12/16 09:47:52;;;;;;;30.02;15.48;;;;;;;-0.54;84.68;101026.18;1790294;79;21552;-79
2020/12/16 09:50:27;;;;;;;30.93;14.67;;;;;;;-0.53;84.63;101026.01;1818171;78;21239;-77
2020/12/16 09:53:01;;;;;;;27.40;14.30;;;;;;;-0.52;84.46;101032.23;1824772;78;21137;-78
2020/12/16 09:55:30;;;;;;;28.13;14.53;;;;;;;-0.51;84.56;101027.22;1820703;78;21552;-79
2020/12/16 09:58:08;;;;;;;29.57;14.57;;;;;;;-0.48;84.43;101033.63;1822952;78;21129;-76
2020/12/16 10:00:37;;;;;;;28.77;14.33;;;;;;;-0.47;84.52;101024.05;1824261;78;21670;-76
2020/12/16 10:03:07;;;;;;;32.17;14.80;;;;;;;-0.45;84.08;101033.28;1774202;80;21603;-76
2020/12/16 10:05:37;;;;;;;31.90;15.50;;;;;;;-0.46;84.23;101019.52;1796373;79;21100;-76
2020/12/16 10:08:11;;;;;;;29.60;15.13;;;;;;;-0.45;84.25;101023.87;1780386;79;21134;-77
2020/12/16 10:10:40;;;;;;;32.90;15.47;;;;;;;-0.45;84.04;101016.66;1790058;80;21750;-76
2020/12/16 10:13:07;;;;;;;27.77;14.03;;;;;;;-0.44;84.04;101010.78;1754227;80;21171;-76
2020/12/16 10:15:35;;;;;;;29.60;15.72;;;;;;;-0.45;84.01;101018.00;1795794;79;21112;-79
2020/12/16 10:18:03;;;;;;;30.32;15.15;;;;;;;-0.45;83.90;101022.03;1797639;79;21639;-78
2020/12/16 10:20:32;;;;;;;27.43;13.97;;;;;;;-0.44;84.11;101017.01;1798919;79;21131;-82
2020/12/16 10:23:02;;;;;;;31.48;14.40;;;;;;;-0.43;83.86;101020.55;1795148;79;21160;-77
2020/12/16 10:25:35;;;;;;;28.67;14.63;;;;;;;-0.42;83.99;101014.15;1794950;79;21645;-82
2020/12/16 10:28:16;;;;;;;30.93;15.03;;;;;;;-0.39;84.23;101007.11;1796114;79;21080;-74
2020/12/16 10:30:45;;;;;;;28.63;14.23;;;;;;;-0.35;84.16;101009.81;1815052;78;21574;-75
2020/12/16 10:33:17;;;;;;;29.20;14.13;;;;;;;-0.33;84.22;101003.27;1788667;79;21623;-74
2020/12/16 10:35:47;;;;;;;29.27;14.40;;;;;;;-0.30;83.91;101012.86;1817211;78;21825;-82
2020/12/16 10:38:15;;;;;;;31.97;16.40;;;;;;;-0.28;83.82;101015.73;1800908;78;21393;-78
2020/12/16 10:40:43;;;;;;;32.40;14.93;;;;;;;-0.29;83.40;101022.63;1787695;79;21500;-79
2020/12/16 10:43:10;;;;;;;29.40;15.23;;;;;;;-0.29;83.55;101018.59;1795272;79;21478;-80
2020/12/16 10:45:41;;;;;;;28.95;15.10;;;;;;;-0.27;83.83;101023.31;1811661;79;21563;-79
2020/12/16 10:48:13;;;;;;;27.47;14.03;;;;;;;-0.26;83.74;101025.00;1825000;77;21080;-80
2020/12/16 10:50:41;;;;;;;31.17;14.83;;;;;;;-0.24;83.65;101016.27;1791563;79;21145;-80
2020/12/16 10:53:10;;;;;;;28.00;14.58;;;;;;;-0.24;83.65;101015.77;1821392;78;21242;-84
2020/12/16 10:55:39;;;;;;;29.30;15.23;;;;;;;-0.22;83.06;101018.29;1781588;79;21591;-83
2020/12/16 10:58:07;;;;;;;30.48;14.70;;;;;;;-0.23;82.99;101023.34;1815939;78;21569;-81
2020/12/16 11:00:43;;;;;;;28.00;14.30;;;;;;;-0.25;83.08;101026.67;1815317;78;21104;-77
2020/12/16 11:03:15;;;;;;;30.03;14.00;;;;;;;-0.25;82.96;101022.64;1787067;78;21537;-79
2020/12/16 11:05:45;;;;;;;30.07;14.77;;;;;;;-0.27;82.80;101026.00;1821427;78;21491;-80
2020/12/16 11:08:15;;;;;;;31.17;13.87;;;;;;;-0.27;82.70;101036.76;1778543;79;21611;-78
2020/12/16 11:10:50;;;;;;;34.83;15.15;;;;;;;-0.30;82.50;101029.85;1788790;79;21226;-78
2020/12/16 11:13:18;;;;;;;31.57;15.43;;;;;;;-0.31;82.96;101030.88;1820438;78;21658;-77
2020/12/16 11:15:46;;;;;;;31.80;14.43;;;;;;;-0.28;83.26;101031.05;1787373;79;21259;-78
2020/12/16 11:18:14;;;;;;;31.07;14.95;;;;;;;-0.26;83.24;101031.73;1816429;78;21235;-77
2020/12/16 11:20:44;;;;;;;37.08;15.58;;;;;;;-0.24;83.27;101037.79;1818961;78;21215;-81
2020/12/16 11:23:15;;;;;;;34.17;14.90;;;;;;;-0.24;83.14;101036.44;1778779;80;21109;-81
2020/12/16 11:25:43;;;;;;;33.33;15.08;;;;;;;-0.24;82.90;101041.83;1822905;78;21555;-82
2020/12/16 11:28:11;;;;;;;33.98;15.48;;;;;;;-0.23;82.96;101042.18;1825807;78;21167;-79
2020/12/16 11:30:39;;;;;;;31.62;15.10;;;;;;;-0.23;82.59;101038.95;1778261;80;21132;-80